sensor_id;sensor_type;location;lat;lon;timestamp;P1;durP1;ratioP1;P2;durP2;ratioP2
61477;SDS011;47345;52.334;10.392;2024-03-08T00:00:35;20.60;;;12.00;;
61477;SDS011;47345;52.334;10.392;2024-03-08T00:03:08;23.80;;;12.10;;
61477;SDS011;47345;52.334;10.392;2024-03-08T00:05:39;22.20;;;12.30;;
61477;SDS011;47345;52.334;10.392;2024-03-08T00:08:09;22.30;;;11.40;;
61477;SDS011;47345;52.334;10.392;2024-03-08T00:10:40;22.30;;;12.10;;
61477;SDS011;47345;52.334;10.392;2024-03-08T00:13:11;22.80;;;13.00;;
61477;SDS011;47345;52.334;10.392;2024-03-08T00:15:42;24.00;;;12.60;;
61477;SDS011;47345;52.334;10.392;2024-03-08T00:18:12;26.40;;;13.30;;
61477;SDS011;47345;52.334;10.392;2024-03-08T00:20:43;22.50;;;12.80;;
61477;SDS011;47345;52.334;10.392;2024-03-08T00:23:13;24.50;;;13.30;;
61477;SDS011;47345;52.334;10.392;2024-03-08T00:25:44;24.50;;;13.50;;
61477;SDS011;47345;52.334;10.392;2024-03-08T00:28:14;25.10;;;13.70;;
61477;SDS011;47345;52.334;10.392;2024-03-08T00:30:45;24.40;;;12.90;;
61477;SDS011;47345;52.334;10.392;2024-03-08T00:33:16;22.30;;;12.80;;
61477;SDS011;47345;52.334;10.392;2024-03-08T00:35:47;22.90;;;12.90;;
61477;SDS011;47345;52.334;10.392;2024-03-08T00:38:17;19.80;;;11.30;;
61477;SDS011;47345;52.334;10.392;2024-03-08T00:40:48;24.10;;;13.00;;
61477;SDS011;47345;52.334;10.392;2024-03-08T00:43:18;23.50;;;13.20;;
61477;SDS011;47345;52.334;10.392;2024-03-08T00:45:49;25.90;;;12.60;;
61477;SDS011;47345;52.334;10.392;2024-03-08T00:48:19;23.80;;;12.90;;
61477;SDS011;47345;52.334;10.392;2024-03-08T00:50:50;20.00;;;11.20;;
61477;SDS011;47345;52.334;10.392;2024-03-08T00:53:20;21.70;;;12.30;;
61477;SDS011;47345;52.334;10.392;2024-03-08T00:55:50;23.50;;;12.80;;
61477;SDS011;47345;52.334;10.392;2024-03-08T00:58:22;24.00;;;11.50;;
61477;SDS011;47345;52.334;10.392;2024-03-08T01:00:53;21.90;;;12.30;;
61477;SDS011;47345;52.334;10.392;2024-03-08T01:03:25;25.90;;;13.70;;
61477;SDS011;47345;52.334;10.392;2024-03-08T01:05:55;23.20;;;12.30;;
61477;SDS011;47345;52.334;10.392;2024-03-08T01:08:27;30.20;;;13.40;;
61477;SDS011;47345;52.334;10.392;2024-03-08T01:10:58;24.30;;;12.20;;
61477;SDS011;47345;52.334;10.392;2024-03-08T01:13:28;23.90;;;11.90;;
61477;SDS011;47345;52.334;10.392;2024-03-08T01:15:59;23.00;;;12.60;;
61477;SDS011;47345;52.334;10.392;2024-03-08T01:18:29;26.50;;;13.30;;
61477;SDS011;47345;52.334;10.392;2024-03-08T01:20:59;22.30;;;11.40;;
61477;SDS011;47345;52.334;10.392;2024-03-08T01:23:30;28.70;;;13.70;;
61477;SDS011;47345;52.334;10.392;2024-03-08T01:26:02;21.90;;;11.60;;
61477;SDS011;47345;52.334;10.392;2024-03-08T01:28:34;23.40;;;12.60;;
61477;SDS011;47345;52.334;10.392;2024-03-08T01:31:05;26.10;;;12.50;;
61477;SDS011;47345;52.334;10.392;2024-03-08T01:33:35;22.70;;;12.70;;
61477;SDS011;47345;52.334;10.392;2024-03-08T01:36:06;21.20;;;12.00;;
61477;SDS011;47345;52.334;10.392;2024-03-08T01:38:37;24.90;;;12.50;;
61477;SDS011;47345;52.334;10.392;2024-03-08T01:41:08;24.50;;;13.10;;
61477;SDS011;47345;52.334;10.392;2024-03-08T01:43:41;22.70;;;12.50;;
61477;SDS011;47345;52.334;10.392;2024-03-08T01:46:11;23.20;;;13.20;;
61477;SDS011;47345;52.334;10.392;2024-03-08T01:48:43;21.70;;;12.00;;
61477;SDS011;47345;52.334;10.392;2024-03-08T01:51:14;22.00;;;12.60;;
61477;SDS011;47345;52.334;10.392;2024-03-08T01:53:46;24.10;;;12.70;;
61477;SDS011;47345;52.334;10.392;2024-03-08T01:56:17;27.60;;;13.70;;
61477;SDS011;47345;52.334;10.392;2024-03-08T01:58:48;22.70;;;12.60;;
61477;SDS011;47345;52.334;10.392;2024-03-08T02:01:18;24.60;;;12.60;;
61477;SDS011;47345;52.334;10.392;2024-03-08T02:03:49;23.10;;;13.30;;
61477;SDS011;47345;52.334;10.392;2024-03-08T02:06:19;29.90;;;14.10;;
61477;SDS011;47345;52.334;10.392;2024-03-08T02:08:50;27.20;;;14.00;;
61477;SDS011;47345;52.334;10.392;2024-03-08T02:11:21;37.20;;;15.00;;
61477;SDS011;47345;52.334;10.392;2024-03-08T02:13:51;24.20;;;14.00;;
61477;SDS011;47345;52.334;10.392;2024-03-08T02:16:22;27.50;;;14.70;;
61477;SDS011;47345;52.334;10.392;2024-03-08T02:18:52;25.90;;;13.20;;
61477;SDS011;47345;52.334;10.392;2024-03-08T02:21:24;26.90;;;14.20;;
61477;SDS011;47345;52.334;10.392;2024-03-08T02:23:55;24.40;;;13.30;;
61477;SDS011;47345;52.334;10.392;2024-03-08T02:26:25;24.10;;;13.30;;
61477;SDS011;47345;52.334;10.392;2024-03-08T02:28:56;26.10;;;13.40;;
61477;SDS011;47345;52.334;10.392;2024-03-08T02:31:26;24.50;;;13.60;;
61477;SDS011;47345;52.334;10.392;2024-03-08T02:33:57;25.00;;;13.40;;
61477;SDS011;47345;52.334;10.392;2024-03-08T02:36:27;27.60;;;13.90;;
61477;SDS011;47345;52.334;10.392;2024-03-08T02:39:02;25.60;;;13.40;;
61477;SDS011;47345;52.334;10.392;2024-03-08T02:41:34;27.50;;;12.60;;
61477;SDS011;47345;52.334;10.392;2024-03-08T02:44:05;22.20;;;12.00;;
61477;SDS011;47345;52.334;10.392;2024-03-08T02:46:35;21.70;;;12.50;;
61477;SDS011;47345;52.334;10.392;2024-03-08T02:49:06;25.80;;;13.00;;
61477;SDS011;47345;52.334;10.392;2024-03-08T02:51:37;25.10;;;12.70;;
61477;SDS011;47345;52.334;10.392;2024-03-08T02:54:08;18.10;;;10.40;;
61477;SDS011;47345;52.334;10.392;2024-03-08T02:56:38;25.10;;;11.80;;
61477;SDS011;47345;52.334;10.392;2024-03-08T02:59:09;23.50;;;12.20;;
61477;SDS011;47345;52.334;10.392;2024-03-08T03:01:40;24.20;;;12.40;;
61477;SDS011;47345;52.334;10.392;2024-03-08T03:04:10;23.60;;;13.10;;
61477;SDS011;47345;52.334;10.392;2024-03-08T03:06:41;25.30;;;13.20;;
61477;SDS011;47345;52.334;10.392;2024-03-08T03:09:11;23.20;;;11.90;;
61477;SDS011;47345;52.334;10.392;2024-03-08T03:11:45;21.80;;;11.80;;
61477;SDS011;47345;52.334;10.392;2024-03-08T03:14:15;27.70;;;13.90;;
61477;SDS011;47345;52.334;10.392;2024-03-08T03:16:46;27.00;;;13.30;;
61477;SDS011;47345;52.334;10.392;2024-03-08T03:19:17;25.00;;;13.10;;
61477;SDS011;47345;52.334;10.392;2024-03-08T03:21:48;25.50;;;13.50;;
61477;SDS011;47345;52.334;10.392;2024-03-08T03:24:20;24.30;;;12.20;;
61477;SDS011;47345;52.334;10.392;2024-03-08T03:26:51;28.00;;;13.20;;
61477;SDS011;47345;52.334;10.392;2024-03-08T03:29:22;27.90;;;13.30;;
61477;SDS011;47345;52.334;10.392;2024-03-08T03:31:53;21.40;;;11.80;;
61477;SDS011;47345;52.334;10.392;2024-03-08T03:34:23;23.00;;;13.10;;
61477;SDS011;47345;52.334;10.392;2024-03-08T03:36:53;20.50;;;11.90;;
61477;SDS011;47345;52.334;10.392;2024-03-08T03:39:24;24.70;;;13.30;;
61477;SDS011;47345;52.334;10.392;2024-03-08T03:41:59;25.70;;;12.90;;
61477;SDS011;47345;52.334;10.392;2024-03-08T03:44:29;24.70;;;14.00;;
61477;SDS011;47345;52.334;10.392;2024-03-08T03:47:00;32.20;;;14.30;;
61477;SDS011;47345;52.334;10.392;2024-03-08T03:49:30;26.30;;;13.50;;
61477;SDS011;47345;52.334;10.392;2024-03-08T03:52:01;23.30;;;12.70;;
61477;SDS011;47345;52.334;10.392;2024-03-08T03:54:34;22.00;;;12.50;;
61477;SDS011;47345;52.334;10.392;2024-03-08T03:57:05;33.90;;;14.00;;
61477;SDS011;47345;52.334;10.392;2024-03-08T03:59:36;28.00;;;13.70;;
61477;SDS011;47345;52.334;10.392;2024-03-08T04:02:07;24.80;;;12.50;;
61477;SDS011;47345;52.334;10.392;2024-03-08T04:04:38;25.10;;;13.40;;
61477;SDS011;47345;52.334;10.392;2024-03-08T04:07:09;22.30;;;12.90;;
61477;SDS011;47345;52.334;10.392;2024-03-08T04:09:40;28.70;;;15.20;;
61477;SDS011;47345;52.334;10.392;2024-03-08T04:12:10;27.90;;;13.80;;
61477;SDS011;47345;52.334;10.392;2024-03-08T04:14:43;25.40;;;13.90;;
61477;SDS011;47345;52.334;10.392;2024-03-08T04:17:13;25.60;;;13.20;;
61477;SDS011;47345;52.334;10.392;2024-03-08T04:19:46;28.30;;;14.20;;
61477;SDS011;47345;52.334;10.392;2024-03-08T04:22:16;22.40;;;12.40;;
61477;SDS011;47345;52.334;10.392;2024-03-08T04:24:47;24.00;;;12.60;;
61477;SDS011;47345;52.334;10.392;2024-03-08T04:27:18;25.00;;;13.20;;
61477;SDS011;47345;52.334;10.392;2024-03-08T04:29:49;23.20;;;13.70;;
61477;SDS011;47345;52.334;10.392;2024-03-08T04:32:19;19.10;;;11.80;;
61477;SDS011;47345;52.334;10.392;2024-03-08T04:34:50;22.60;;;12.50;;
61477;SDS011;47345;52.334;10.392;2024-03-08T04:37:20;26.40;;;13.70;;
61477;SDS011;47345;52.334;10.392;2024-03-08T04:39:50;24.50;;;13.60;;
61477;SDS011;47345;52.334;10.392;2024-03-08T04:42:21;22.30;;;12.00;;
61477;SDS011;47345;52.334;10.392;2024-03-08T04:44:52;23.70;;;14.10;;
61477;SDS011;47345;52.334;10.392;2024-03-08T04:47:23;23.90;;;12.80;;
61477;SDS011;47345;52.334;10.392;2024-03-08T04:49:53;26.40;;;13.50;;
61477;SDS011;47345;52.334;10.392;2024-03-08T04:52:25;23.80;;;12.90;;
61477;SDS011;47345;52.334;10.392;2024-03-08T04:54:56;27.70;;;14.20;;
61477;SDS011;47345;52.334;10.392;2024-03-08T04:57:26;22.30;;;12.70;;
61477;SDS011;47345;52.334;10.392;2024-03-08T04:59:57;23.60;;;13.40;;
61477;SDS011;47345;52.334;10.392;2024-03-08T05:02:27;26.60;;;14.20;;
61477;SDS011;47345;52.334;10.392;2024-03-08T05:04:58;24.80;;;14.20;;
61477;SDS011;47345;52.334;10.392;2024-03-08T05:07:29;27.70;;;14.30;;
61477;SDS011;47345;52.334;10.392;2024-03-08T05:10:00;26.70;;;13.30;;
61477;SDS011;47345;52.334;10.392;2024-03-08T05:12:32;27.10;;;14.60;;
61477;SDS011;47345;52.334;10.392;2024-03-08T05:15:02;23.30;;;13.70;;
61477;SDS011;47345;52.334;10.392;2024-03-08T05:17:35;21.70;;;12.60;;
61477;SDS011;47345;52.334;10.392;2024-03-08T05:20:08;32.30;;;14.60;;
61477;SDS011;47345;52.334;10.392;2024-03-08T05:22:41;22.00;;;13.10;;
61477;SDS011;47345;52.334;10.392;2024-03-08T05:25:11;23.40;;;13.70;;
61477;SDS011;47345;52.334;10.392;2024-03-08T05:27:42;23.40;;;13.20;;
61477;SDS011;47345;52.334;10.392;2024-03-08T05:30:12;26.40;;;14.20;;
61477;SDS011;47345;52.334;10.392;2024-03-08T05:32:43;29.70;;;14.60;;
61477;SDS011;47345;52.334;10.392;2024-03-08T05:35:14;22.80;;;13.90;;
61477;SDS011;47345;52.334;10.392;2024-03-08T05:37:44;26.20;;;13.70;;
61477;SDS011;47345;52.334;10.392;2024-03-08T05:40:15;24.50;;;13.80;;
61477;SDS011;47345;52.334;10.392;2024-03-08T05:42:50;26.90;;;15.30;;
61477;SDS011;47345;52.334;10.392;2024-03-08T05:45:20;30.90;;;15.10;;
61477;SDS011;47345;52.334;10.392;2024-03-08T05:47:52;25.70;;;14.40;;
61477;SDS011;47345;52.334;10.392;2024-03-08T05:50:23;25.40;;;14.20;;
61477;SDS011;47345;52.334;10.392;2024-03-08T05:52:54;25.10;;;13.30;;
61477;SDS011;47345;52.334;10.392;2024-03-08T05:55:25;22.60;;;13.00;;
61477;SDS011;47345;52.334;10.392;2024-03-08T05:57:57;24.70;;;14.40;;
61477;SDS011;47345;52.334;10.392;2024-03-08T06:00:28;26.30;;;13.00;;
61477;SDS011;47345;52.334;10.392;2024-03-08T06:02:59;24.30;;;13.40;;
61477;SDS011;47345;52.334;10.392;2024-03-08T06:05:30;23.40;;;13.20;;
61477;SDS011;47345;52.334;10.392;2024-03-08T06:08:01;24.30;;;13.70;;
61477;SDS011;47345;52.334;10.392;2024-03-08T06:10:32;28.40;;;14.20;;
61477;SDS011;47345;52.334;10.392;2024-03-08T06:13:03;24.20;;;13.00;;
61477;SDS011;47345;52.334;10.392;2024-03-08T06:15:34;26.50;;;13.30;;
61477;SDS011;47345;52.334;10.392;2024-03-08T06:18:04;28.80;;;15.00;;
61477;SDS011;47345;52.334;10.392;2024-03-08T06:20:38;24.60;;;14.30;;
61477;SDS011;47345;52.334;10.392;2024-03-08T06:23:11;29.50;;;15.10;;
61477;SDS011;47345;52.334;10.392;2024-03-08T06:25:45;27.60;;;13.90;;
61477;SDS011;47345;52.334;10.392;2024-03-08T06:28:15;25.40;;;14.30;;
61477;SDS011;47345;52.334;10.392;2024-03-08T06:30:46;26.10;;;14.40;;
61477;SDS011;47345;52.334;10.392;2024-03-08T06:33:18;24.30;;;13.10;;
61477;SDS011;47345;52.334;10.392;2024-03-08T06:35:49;29.00;;;14.90;;
61477;SDS011;47345;52.334;10.392;2024-03-08T06:38:19;24.00;;;13.70;;
61477;SDS011;47345;52.334;10.392;2024-03-08T06:40:53;24.50;;;13.90;;
61477;SDS011;47345;52.334;10.392;2024-03-08T06:43:23;26.30;;;15.30;;
61477;SDS011;47345;52.334;10.392;2024-03-08T06:46:00;27.50;;;14.40;;
61477;SDS011;47345;52.334;10.392;2024-03-08T06:48:31;27.60;;;14.80;;
61477;SDS011;47345;52.334;10.392;2024-03-08T06:51:03;26.30;;;15.10;;
61477;SDS011;47345;52.334;10.392;2024-03-08T06:53:34;28.50;;;15.40;;
61477;SDS011;47345;52.334;10.392;2024-03-08T06:56:06;25.90;;;14.60;;
61477;SDS011;47345;52.334;10.392;2024-03-08T06:58:36;26.10;;;14.20;;
61477;SDS011;47345;52.334;10.392;2024-03-08T07:01:07;26.00;;;15.20;;
61477;SDS011;47345;52.334;10.392;2024-03-08T07:03:42;22.90;;;13.90;;
61477;SDS011;47345;52.334;10.392;2024-03-08T07:06:13;25.10;;;13.30;;
61477;SDS011;47345;52.334;10.392;2024-03-08T07:08:46;24.30;;;13.50;;
61477;SDS011;47345;52.334;10.392;2024-03-08T07:11:19;24.40;;;14.00;;
61477;SDS011;47345;52.334;10.392;2024-03-08T07:13:50;26.10;;;14.90;;
61477;SDS011;47345;52.334;10.392;2024-03-08T07:16:21;27.30;;;15.50;;
61477;SDS011;47345;52.334;10.392;2024-03-08T07:18:52;28.90;;;15.60;;
61477;SDS011;47345;52.334;10.392;2024-03-08T07:21:23;27.30;;;14.90;;
61477;SDS011;47345;52.334;10.392;2024-03-08T07:23:53;28.20;;;15.10;;
61477;SDS011;47345;52.334;10.392;2024-03-08T07:26:41;26.70;;;15.30;;
61477;SDS011;47345;52.334;10.392;2024-03-08T07:29:12;27.70;;;15.20;;
61477;SDS011;47345;52.334;10.392;2024-03-08T07:31:42;31.40;;;16.40;;
61477;SDS011;47345;52.334;10.392;2024-03-08T07:34:18;29.90;;;15.70;;
61477;SDS011;47345;52.334;10.392;2024-03-08T07:36:49;27.30;;;15.50;;
61477;SDS011;47345;52.334;10.392;2024-03-08T07:39:19;27.00;;;15.40;;
61477;SDS011;47345;52.334;10.392;2024-03-08T07:41:51;29.30;;;15.40;;
61477;SDS011;47345;52.334;10.392;2024-03-08T07:44:22;25.40;;;14.90;;
61477;SDS011;47345;52.334;10.392;2024-03-08T07:46:52;24.40;;;14.50;;
61477;SDS011;47345;52.334;10.392;2024-03-08T07:49:25;33.10;;;16.70;;
61477;SDS011;47345;52.334;10.392;2024-03-08T07:51:55;27.50;;;15.50;;
61477;SDS011;47345;52.334;10.392;2024-03-08T07:54:25;27.60;;;16.20;;
61477;SDS011;47345;52.334;10.392;2024-03-08T07:56:56;32.00;;;15.70;;
61477;SDS011;47345;52.334;10.392;2024-03-08T07:59:26;26.90;;;16.30;;
61477;SDS011;47345;52.334;10.392;2024-03-08T08:01:57;25.50;;;16.00;;
61477;SDS011;47345;52.334;10.392;2024-03-08T08:04:28;28.00;;;17.20;;
61477;SDS011;47345;52.334;10.392;2024-03-08T08:06:59;28.50;;;17.00;;
61477;SDS011;47345;52.334;10.392;2024-03-08T08:09:29;30.20;;;17.20;;
61477;SDS011;47345;52.334;10.392;2024-03-08T08:12:02;31.40;;;17.50;;
61477;SDS011;47345;52.334;10.392;2024-03-08T08:14:34;27.90;;;16.10;;
61477;SDS011;47345;52.334;10.392;2024-03-08T08:17:05;27.10;;;17.30;;
61477;SDS011;47345;52.334;10.392;2024-03-08T08:19:36;27.70;;;16.40;;
61477;SDS011;47345;52.334;10.392;2024-03-08T08:22:07;28.10;;;17.20;;
61477;SDS011;47345;52.334;10.392;2024-03-08T08:24:37;27.30;;;15.80;;
61477;SDS011;47345;52.334;10.392;2024-03-08T08:27:08;28.50;;;17.60;;
61477;SDS011;47345;52.334;10.392;2024-03-08T08:29:39;30.00;;;17.30;;
61477;SDS011;47345;52.334;10.392;2024-03-08T08:32:10;27.60;;;17.10;;
61477;SDS011;47345;52.334;10.392;2024-03-08T08:34:41;25.70;;;14.60;;
61477;SDS011;47345;52.334;10.392;2024-03-08T08:37:12;26.60;;;16.80;;
61477;SDS011;47345;52.334;10.392;2024-03-08T08:39:46;30.10;;;17.40;;
61477;SDS011;47345;52.334;10.392;2024-03-08T08:42:19;30.50;;;17.70;;
61477;SDS011;47345;52.334;10.392;2024-03-08T08:44:49;26.20;;;16.80;;
61477;SDS011;47345;52.334;10.392;2024-03-08T08:47:21;30.50;;;16.90;;
61477;SDS011;47345;52.334;10.392;2024-03-08T08:49:51;27.60;;;17.70;;
61477;SDS011;47345;52.334;10.392;2024-03-08T08:52:22;28.10;;;16.70;;
61477;SDS011;47345;52.334;10.392;2024-03-08T08:54:52;26.40;;;16.80;;
61477;SDS011;47345;52.334;10.392;2024-03-08T08:57:24;27.90;;;16.50;;
61477;SDS011;47345;52.334;10.392;2024-03-08T08:59:54;28.90;;;17.90;;
61477;SDS011;47345;52.334;10.392;2024-03-08T09:02:25;25.50;;;15.60;;
61477;SDS011;47345;52.334;10.392;2024-03-08T09:04:56;27.50;;;17.30;;
61477;SDS011;47345;52.334;10.392;2024-03-08T09:07:26;30.40;;;18.10;;
61477;SDS011;47345;52.334;10.392;2024-03-08T09:09:57;30.80;;;17.00;;
61477;SDS011;47345;52.334;10.392;2024-03-08T09:12:34;26.30;;;17.10;;
61477;SDS011;47345;52.334;10.392;2024-03-08T09:15:07;25.00;;;15.80;;
61477;SDS011;47345;52.334;10.392;2024-03-08T09:17:39;27.70;;;16.50;;
61477;SDS011;47345;52.334;10.392;2024-03-08T09:20:11;29.70;;;17.80;;
61477;SDS011;47345;52.334;10.392;2024-03-08T09:22:44;30.10;;;18.00;;
61477;SDS011;47345;52.334;10.392;2024-03-08T09:25:15;29.70;;;17.00;;
61477;SDS011;47345;52.334;10.392;2024-03-08T09:27:46;31.20;;;19.00;;
61477;SDS011;47345;52.334;10.392;2024-03-08T09:30:17;32.00;;;18.60;;
61477;SDS011;47345;52.334;10.392;2024-03-08T09:32:49;31.00;;;18.10;;
61477;SDS011;47345;52.334;10.392;2024-03-08T09:35:20;30.60;;;18.90;;
61477;SDS011;47345;52.334;10.392;2024-03-08T09:37:51;32.30;;;18.50;;
61477;SDS011;47345;52.334;10.392;2024-03-08T09:40:22;29.10;;;19.10;;
61477;SDS011;47345;52.334;10.392;2024-03-08T09:42:53;29.90;;;17.70;;
61477;SDS011;47345;52.334;10.392;2024-03-08T09:45:25;32.50;;;18.90;;
61477;SDS011;47345;52.334;10.392;2024-03-08T09:47:58;34.00;;;20.30;;
61477;SDS011;47345;52.334;10.392;2024-03-08T09:50:28;31.50;;;18.30;;
61477;SDS011;47345;52.334;10.392;2024-03-08T09:53:00;32.40;;;18.20;;
61477;SDS011;47345;52.334;10.392;2024-03-08T09:55:31;28.40;;;17.10;;
61477;SDS011;47345;52.334;10.392;2024-03-08T09:58:05;28.60;;;18.20;;
61477;SDS011;47345;52.334;10.392;2024-03-08T10:00:53;32.50;;;18.70;;
61477;SDS011;47345;52.334;10.392;2024-03-08T10:03:25;31.60;;;19.60;;
61477;SDS011;47345;52.334;10.392;2024-03-08T10:05:55;36.40;;;18.70;;
61477;SDS011;47345;52.334;10.392;2024-03-08T10:08:28;30.40;;;18.30;;
61477;SDS011;47345;52.334;10.392;2024-03-08T10:10:58;29.90;;;19.20;;
61477;SDS011;47345;52.334;10.392;2024-03-08T10:13:30;82.10;;;47.10;;
61477;SDS011;47345;52.334;10.392;2024-03-08T10:16:01;44.10;;;27.80;;
61477;SDS011;47345;52.334;10.392;2024-03-08T10:18:32;62.70;;;34.90;;
61477;SDS011;47345;52.334;10.392;2024-03-08T10:21:04;77.70;;;51.00;;
61477;SDS011;47345;52.334;10.392;2024-03-08T10:23:37;44.40;;;28.50;;
61477;SDS011;47345;52.334;10.392;2024-03-08T10:26:11;38.70;;;25.50;;
61477;SDS011;47345;52.334;10.392;2024-03-08T10:28:43;37.40;;;24.20;;
61477;SDS011;47345;52.334;10.392;2024-03-08T10:31:16;34.80;;;21.60;;
61477;SDS011;47345;52.334;10.392;2024-03-08T10:33:47;31.00;;;20.40;;
61477;SDS011;47345;52.334;10.392;2024-03-08T10:36:18;154.60;;;55.30;;
61477;SDS011;47345;52.334;10.392;2024-03-08T10:38:50;53.50;;;29.40;;
61477;SDS011;47345;52.334;10.392;2024-03-08T10:41:21;47.40;;;25.90;;
61477;SDS011;47345;52.334;10.392;2024-03-08T10:44:02;42.50;;;25.90;;
61477;SDS011;47345;52.334;10.392;2024-03-08T10:46:47;55.30;;;32.10;;
61477;SDS011;47345;52.334;10.392;2024-03-08T10:49:32;30.50;;;19.70;;
61477;SDS011;47345;52.334;10.392;2024-03-08T10:52:07;41.40;;;25.20;;
61477;SDS011;47345;52.334;10.392;2024-03-08T10:54:41;45.80;;;24.50;;
61477;SDS011;47345;52.334;10.392;2024-03-08T10:57:13;54.10;;;28.50;;
61477;SDS011;47345;52.334;10.392;2024-03-08T10:59:47;37.60;;;23.40;;
61477;SDS011;47345;52.334;10.392;2024-03-08T11:02:18;47.50;;;25.50;;
61477;SDS011;47345;52.334;10.392;2024-03-08T11:04:50;56.40;;;31.00;;
61477;SDS011;47345;52.334;10.392;2024-03-08T11:07:24;61.60;;;35.00;;
61477;SDS011;47345;52.334;10.392;2024-03-08T11:09:56;51.30;;;30.80;;
61477;SDS011;47345;52.334;10.392;2024-03-08T11:12:28;32.90;;;21.30;;
61477;SDS011;47345;52.334;10.392;2024-03-08T11:15:09;53.90;;;33.00;;
61477;SDS011;47345;52.334;10.392;2024-03-08T11:17:44;45.10;;;30.10;;
61477;SDS011;47345;52.334;10.392;2024-03-08T11:20:17;36.60;;;18.60;;
61477;SDS011;47345;52.334;10.392;2024-03-08T11:22:50;39.60;;;24.40;;
61477;SDS011;47345;52.334;10.392;2024-03-08T11:25:35;51.90;;;32.40;;
61477;SDS011;47345;52.334;10.392;2024-03-08T11:28:12;41.30;;;24.50;;
61477;SDS011;47345;52.334;10.392;2024-03-08T11:33:56;35.00;;;20.90;;
61477;SDS011;47345;52.334;10.392;2024-03-08T11:36:27;28.90;;;19.50;;
61477;SDS011;47345;52.334;10.392;2024-03-08T11:38:59;31.80;;;19.40;;
61477;SDS011;47345;52.334;10.392;2024-03-08T11:41:37;30.70;;;19.60;;
61477;SDS011;47345;52.334;10.392;2024-03-08T11:44:09;31.40;;;19.90;;
61477;SDS011;47345;52.334;10.392;2024-03-08T11:46:43;47.20;;;25.70;;
61477;SDS011;47345;52.334;10.392;2024-03-08T11:49:15;70.40;;;37.90;;
61477;SDS011;47345;52.334;10.392;2024-03-08T11:51:46;44.70;;;23.10;;
61477;SDS011;47345;52.334;10.392;2024-03-08T11:54:19;35.70;;;20.10;;
61477;SDS011;47345;52.334;10.392;2024-03-08T11:56:52;37.00;;;22.30;;
61477;SDS011;47345;52.334;10.392;2024-03-08T11:59:23;72.40;;;36.50;;
61477;SDS011;47345;52.334;10.392;2024-03-08T12:02:01;46.90;;;24.90;;
61477;SDS011;47345;52.334;10.392;2024-03-08T12:04:33;61.30;;;31.70;;
61477;SDS011;47345;52.334;10.392;2024-03-08T12:07:04;34.00;;;21.40;;
61477;SDS011;47345;52.334;10.392;2024-03-08T12:09:40;30.20;;;19.20;;
61477;SDS011;47345;52.334;10.392;2024-03-08T12:12:14;39.10;;;24.40;;
61477;SDS011;47345;52.334;10.392;2024-03-08T12:14:44;28.90;;;17.10;;
61477;SDS011;47345;52.334;10.392;2024-03-08T12:17:15;27.60;;;17.30;;
61477;SDS011;47345;52.334;10.392;2024-03-08T12:19:47;29.30;;;17.30;;
61477;SDS011;47345;52.334;10.392;2024-03-08T12:22:18;27.60;;;17.10;;
61477;SDS011;47345;52.334;10.392;2024-03-08T12:25:04;25.70;;;16.10;;
61477;SDS011;47345;52.334;10.392;2024-03-08T12:27:38;25.20;;;16.50;;
61477;SDS011;47345;52.334;10.392;2024-03-08T12:30:20;23.70;;;13.60;;
61477;SDS011;47345;52.334;10.392;2024-03-08T12:32:55;27.90;;;16.00;;
61477;SDS011;47345;52.334;10.392;2024-03-08T12:35:27;26.40;;;16.20;;
61477;SDS011;47345;52.334;10.392;2024-03-08T12:37:59;25.20;;;14.60;;
61477;SDS011;47345;52.334;10.392;2024-03-08T12:40:30;29.50;;;15.70;;
61477;SDS011;47345;52.334;10.392;2024-03-08T12:43:02;24.70;;;16.70;;
61477;SDS011;47345;52.334;10.392;2024-03-08T12:45:34;24.90;;;16.80;;
61477;SDS011;47345;52.334;10.392;2024-03-08T12:48:11;18.60;;;12.90;;
61477;SDS011;47345;52.334;10.392;2024-03-08T12:50:43;25.30;;;16.30;;
61477;SDS011;47345;52.334;10.392;2024-03-08T12:53:15;23.80;;;16.60;;
61477;SDS011;47345;52.334;10.392;2024-03-08T12:55:46;25.30;;;16.20;;
61477;SDS011;47345;52.334;10.392;2024-03-08T12:58:17;22.80;;;15.50;;
61477;SDS011;47345;52.334;10.392;2024-03-08T13:00:48;23.50;;;14.90;;
61477;SDS011;47345;52.334;10.392;2024-03-08T13:03:21;23.50;;;15.80;;
61477;SDS011;47345;52.334;10.392;2024-03-08T13:05:51;26.10;;;15.80;;
61477;SDS011;47345;52.334;10.392;2024-03-08T13:08:24;21.70;;;14.20;;
61477;SDS011;47345;52.334;10.392;2024-03-08T13:10:57;29.80;;;17.20;;
61477;SDS011;47345;52.334;10.392;2024-03-08T13:13:27;24.60;;;16.20;;
61477;SDS011;47345;52.334;10.392;2024-03-08T13:15:58;23.70;;;13.60;;
61477;SDS011;47345;52.334;10.392;2024-03-08T13:18:29;19.70;;;13.80;;
61477;SDS011;47345;52.334;10.392;2024-03-08T13:20:59;27.30;;;14.90;;
61477;SDS011;47345;52.334;10.392;2024-03-08T13:23:33;22.20;;;12.90;;
61477;SDS011;47345;52.334;10.392;2024-03-08T13:26:08;21.00;;;13.90;;
61477;SDS011;47345;52.334;10.392;2024-03-08T13:28:43;22.70;;;15.10;;
61477;SDS011;47345;52.334;10.392;2024-03-08T13:31:16;20.80;;;13.90;;
61477;SDS011;47345;52.334;10.392;2024-03-08T13:33:46;25.80;;;15.80;;
61477;SDS011;47345;52.334;10.392;2024-03-08T13:36:19;31.70;;;15.90;;
61477;SDS011;47345;52.334;10.392;2024-03-08T13:38:51;23.50;;;15.10;;
61477;SDS011;47345;52.334;10.392;2024-03-08T13:41:21;21.70;;;13.70;;
61477;SDS011;47345;52.334;10.392;2024-03-08T13:43:52;25.20;;;14.00;;
61477;SDS011;47345;52.334;10.392;2024-03-08T13:46:23;23.20;;;14.50;;
61477;SDS011;47345;52.334;10.392;2024-03-08T13:48:54;24.60;;;16.00;;
61477;SDS011;47345;52.334;10.392;2024-03-08T13:51:25;26.50;;;15.60;;
61477;SDS011;47345;52.334;10.392;2024-03-08T13:53:55;22.30;;;16.00;;
61477;SDS011;47345;52.334;10.392;2024-03-08T13:56:25;26.30;;;17.20;;
61477;SDS011;47345;52.334;10.392;2024-03-08T13:58:57;21.70;;;13.80;;
61477;SDS011;47345;52.334;10.392;2024-03-08T14:01:29;27.30;;;17.10;;
61477;SDS011;47345;52.334;10.392;2024-03-08T14:03:59;29.90;;;17.50;;
61477;SDS011;47345;52.334;10.392;2024-03-08T14:06:31;25.40;;;16.50;;
61477;SDS011;47345;52.334;10.392;2024-03-08T14:09:03;22.50;;;15.00;;
61477;SDS011;47345;52.334;10.392;2024-03-08T14:11:35;24.00;;;15.50;;
61477;SDS011;47345;52.334;10.392;2024-03-08T14:14:06;28.30;;;16.80;;
61477;SDS011;47345;52.334;10.392;2024-03-08T14:16:36;23.10;;;14.70;;
61477;SDS011;47345;52.334;10.392;2024-03-08T14:19:07;23.10;;;14.60;;
61477;SDS011;47345;52.334;10.392;2024-03-08T14:21:37;26.90;;;15.70;;
61477;SDS011;47345;52.334;10.392;2024-03-08T14:24:09;22.80;;;14.30;;
61477;SDS011;47345;52.334;10.392;2024-03-08T14:26:40;22.70;;;14.60;;
61477;SDS011;47345;52.334;10.392;2024-03-08T14:29:10;23.70;;;14.50;;
61477;SDS011;47345;52.334;10.392;2024-03-08T14:31:41;23.70;;;14.10;;
61477;SDS011;47345;52.334;10.392;2024-03-08T14:34:11;24.20;;;14.60;;
61477;SDS011;47345;52.334;10.392;2024-03-08T14:36:42;20.50;;;12.80;;